Historique des mesures à Cassis (13260), France
Quotidien Résumé Fevrier 26, 2018 Unités:  Métrique    US   Métrique/US
« Précédent (Jour)
Suivant (Jour) »
Quotidien Hebdomadaire Mensuel Annuel Période au choix
  Maximum: Minimum: Moyenne:
Température: TemperatureC °C 1.0 °C 4.2 °C
Point de rosée: DewpointC °C -7.6 °C -2.6 °C
Humidité: Humidity % 43 % 59 %
Vitesse du vent: 0 km/h 0 km/h 8.7 km/h
Rafales: 0 km/h - -
Vent:- - West
Pression: PressurehPa hPa 1001.6 hPa -
Précipitations: 1.0 mm    
Historical Graphs
 
 
Mesures pour : Fevrier 26, 2018
Heure Temperature Point de rosée Pression Vent Vitesse du vent Rafales Humidité Pluie (par heure) Conditions
TemperatureC °C DewpointC °C PressurehPa hPa Calm     Humidity % HourlyPrecipMM mm SoftwareType W/m2
00:12 4.6 °C 0.2 °C 1004.6 hPa WNW 36.5 km/h 47.3 km/h 73 % 0.0 mm open2300-1.11 W/m2
01:12 3.3 °C -0.7 °C 1005.3 hPa NNW 29 km/h 29.5 km/h 75 % 0.5 mm open2300-1.11 W/m2
02:12 3.3 °C -0.6 °C 1005.6 hPa NW 7.6 km/h 12.7 km/h 76 % 0.0 mm open2300-1.11 W/m2
03:12 3.1 °C -0.9 °C 1005.3 hPa Calm   5.6 km/h 75 % 0.5 mm open2300-1.11 W/m2
04:12 3.6 °C -0.1 °C 1005.3 hPa Calm     77 % 0.0 mm open2300-1.11 W/m2
05:12 3.1 °C -1.4 °C 1004.6 hPa NW 8 km/h 12.2 km/h 72 % 0.0 mm open2300-1.11 W/m2
06:12 2.6 °C -2.1 °C 1005.0 hPa NW 14 km/h 14 km/h 71 % 0.0 mm open2300-1.11 W/m2
07:12 1.6 °C -3.5 °C 1003.9 hPa NNW 2.3 km/h 12.7 km/h 69 % 0.0 mm open2300-1.11 W/m2
08:12 1.0 °C -4.3 °C 1003.9 hPa NNE 6.4 km/h 23 km/h 68 % 0.0 mm open2300-1.11 W/m2
09:12 2.6 °C -2.9 °C 1003.6 hPa West 15.6 km/h 15.6 km/h 67 % 0.0 mm open2300-1.11 W/m2
11:12 6.9 °C 0.1 °C 1002.9 hPa Calm   7.6 km/h 62 % 0.0 mm open2300-1.11 W/m2
12:12 8.2 °C 1.1 °C 1002.9 hPa Calm   4.2 km/h 61 % 0.0 mm open2300-1.11 W/m2
13:12 8.5 °C 1.6 °C 1002.6 hPa SE 14.5 km/h 14.5 km/h 62 % 0.0 mm open2300-1.11 W/m2
14:12 8.5 °C 1.6 °C 1002.3 hPa Calm     62 % 0.0 mm open2300-1.11 W/m2
15:12 7.4 °C -2.3 °C 1001.6 hPa NW 20.3 km/h 30.7 km/h 50 % 0.0 mm open2300-1.11 W/m2
16:12 5.9 °C -5.8 °C 1001.6 hPa WNW 16.9 km/h 29 km/h 43 % 0.0 mm open2300-1.11 W/m2
17:12 4.5 °C -7.1 °C 1001.6 hPa WNW 16.3 km/h 23 km/h 43 % 0.0 mm open2300-1.11 W/m2
18:12 3.6 °C -7.6 °C 1002.3 hPa NNW 4.2 km/h 14 km/h 44 % 0.0 mm open2300-1.11 W/m2
19:12 3.6 °C -7.6 °C 1002.6 hPa North 6.4 km/h 6.9 km/h 44 % 0.0 mm open2300-1.11 W/m2
20:12 3.8 °C -6.8 °C 1002.9 hPa Calm     46 % 0.0 mm open2300-1.11 W/m2
21:12 3.9 °C -3.7 °C 1003.3 hPa NW 3.4 km/h 3.4 km/h 58 % 0.0 mm open2300-1.11 W/m2
23:12 3.0 °C -5.9 °C 1003.9 hPa Calm     52 % 0.0 mm open2300-1.11 W/m2
Observations météo à CASSIS
WU-History script by Weather Underground - 1 mb